createdAt,value
2018-06-05T00:02:05.121Z,16.50
2018-06-05T00:04:33.898Z,16.50
2018-06-05T00:07:05.040Z,16.40
2018-06-05T00:09:33.968Z,16.30
2018-06-05T00:12:02.906Z,16.30
2018-06-05T00:14:33.154Z,16.30
2018-06-05T00:17:02.211Z,16.40
2018-06-05T00:19:31.063Z,16.40
2018-06-05T00:21:59.203Z,16.40
2018-06-05T00:24:27.647Z,16.30
2018-06-05T00:26:55.891Z,16.30
2018-06-05T00:29:26.429Z,16.30
2018-06-05T00:31:57.911Z,16.20
2018-06-05T00:34:26.722Z,16.20
2018-06-05T00:36:56.457Z,16.20
2018-06-05T00:39:29.760Z,16.30
2018-06-05T00:42:00.317Z,16.20
2018-06-05T00:44:29.991Z,16.20
2018-06-05T00:46:58.872Z,16.00
2018-06-05T00:49:27.802Z,16.00
2018-06-05T00:52:04.792Z,16.00
2018-06-05T00:54:32.915Z,16.00
2018-06-05T00:57:01.802Z,16.00
2018-06-05T00:59:31.211Z,16.00
2018-06-05T01:01:59.344Z,16.10
2018-06-05T01:04:28.385Z,15.90
2018-06-05T01:07:00.369Z,15.80
2018-06-05T01:09:28.500Z,15.80
2018-06-05T01:11:59.434Z,15.90
2018-06-05T01:14:29.241Z,15.70
2018-06-05T01:16:57.432Z,15.80
2018-06-05T01:19:27.531Z,15.70
2018-06-05T01:21:56.344Z,15.80
2018-06-05T01:24:25.385Z,15.70
2018-06-05T01:26:54.475Z,15.70
2018-06-05T01:29:22.919Z,15.70
2018-06-05T01:31:53.819Z,15.50
2018-06-05T01:34:22.227Z,15.50
2018-06-05T01:36:51.366Z,15.50
2018-06-05T01:39:19.746Z,15.60
2018-06-05T01:41:47.877Z,15.60
2018-06-05T01:44:20.037Z,15.60
2018-06-05T01:46:48.220Z,15.70
2018-06-05T01:49:16.343Z,15.60
2018-06-05T01:51:45.122Z,15.40
2018-06-05T01:54:13.362Z,15.30
2018-06-05T01:56:43.267Z,15.20
2018-06-05T01:59:11.386Z,15.10
2018-06-05T02:01:39.518Z,15.20
2018-06-05T02:04:08.417Z,15.10
2018-06-05T02:06:36.663Z,15.10
2018-06-05T02:09:06.569Z,15.00
2018-06-05T02:11:35.519Z,15.10
2018-06-05T02:14:05.247Z,15.10
2018-06-05T02:16:33.478Z,14.90
2018-06-05T02:19:01.955Z,15.00
2018-06-05T02:21:30.551Z,14.90
2018-06-05T02:23:59.442Z,14.90
2018-06-05T02:26:28.434Z,14.80
2018-06-05T02:28:57.314Z,14.80
2018-06-05T02:31:25.486Z,14.80
2018-06-05T02:33:54.465Z,14.70
2018-06-05T02:36:23.807Z,14.70
2018-06-05T02:38:52.925Z,14.70
2018-06-05T02:41:21.032Z,14.70
2018-06-05T02:43:50.208Z,14.80
2018-06-05T02:46:18.609Z,14.80
2018-06-05T02:48:46.751Z,14.70
2018-06-05T02:51:14.889Z,14.70
2018-06-05T02:53:43.025Z,14.70
2018-06-05T02:56:11.445Z,14.70
2018-06-05T02:58:41.048Z,14.70
2018-06-05T03:01:09.202Z,14.70
2018-06-05T03:03:37.353Z,14.60
2018-06-05T03:06:07.190Z,14.60
2018-06-05T03:08:35.340Z,14.40
2018-06-05T03:11:08.166Z,14.50
2018-06-05T03:13:37.125Z,14.50
2018-06-05T03:16:05.832Z,14.40
2018-06-05T03:18:34.014Z,14.50
2018-06-05T03:21:03.835Z,14.60
2018-06-05T03:23:33.555Z,14.60
2018-06-05T03:26:01.881Z,14.50
2018-06-05T03:28:30.866Z,14.60
2018-06-05T03:31:00.915Z,14.60
2018-06-05T03:33:29.044Z,14.60
2018-06-05T03:35:57.725Z,14.50
2018-06-05T03:38:25.856Z,14.50
2018-06-05T03:40:55.580Z,14.70
2018-06-05T03:43:24.785Z,14.70
2018-06-05T03:45:52.935Z,14.70
2018-06-05T03:48:21.052Z,14.80
2018-06-05T03:50:49.168Z,14.80
2018-06-05T03:53:17.572Z,14.90
2018-06-05T03:55:46.987Z,15.00
2018-06-05T03:58:16.884Z,15.00
2018-06-05T04:00:45.009Z,15.00
2018-06-05T04:03:16.292Z,15.00
2018-06-05T04:05:45.289Z,15.10
2018-06-05T04:08:14.355Z,15.20
2018-06-05T04:10:42.474Z,15.40
2018-06-05T04:13:12.254Z,15.30
2018-06-05T04:15:40.370Z,15.30
2018-06-05T04:18:09.725Z,15.40
2018-06-05T04:20:39.154Z,15.40
2018-06-05T04:23:08.083Z,15.40
2018-06-05T04:25:37.033Z,15.40
2018-06-05T04:28:09.597Z,15.50
2018-06-05T04:30:38.519Z,15.60
2018-06-05T04:33:07.206Z,15.60
2018-06-05T04:35:36.110Z,15.80
2018-06-05T04:38:04.294Z,15.90
2018-06-05T04:40:32.540Z,15.90
2018-06-05T04:43:00.719Z,16.00
2018-06-05T04:45:29.600Z,16.00
2018-06-05T04:47:58.506Z,16.10
2018-06-05T04:50:27.570Z,16.00
2018-06-05T04:52:55.700Z,16.10
2018-06-05T04:55:25.621Z,16.20
2018-06-05T04:57:54.626Z,16.30
2018-06-05T05:00:22.770Z,16.40
2018-06-05T05:02:51.470Z,16.50
2018-06-05T05:05:19.679Z,16.60
2018-06-05T05:07:49.808Z,16.70
2018-06-05T05:10:18.978Z,16.80
2018-06-05T05:12:49.440Z,16.90
2018-06-05T05:15:17.598Z,17.00
2018-06-05T05:17:46.734Z,17.10
2018-06-05T05:20:14.962Z,17.20
2018-06-05T05:22:43.081Z,17.30
2018-06-05T05:25:12.350Z,17.40
2018-06-05T05:27:42.228Z,17.60
2018-06-05T05:30:10.385Z,17.70
2018-06-05T05:32:38.622Z,17.80
2018-06-05T05:35:07.400Z,18.00
2018-06-05T05:37:37.112Z,18.10
2018-06-05T05:40:06.290Z,18.20
2018-06-05T05:42:35.223Z,18.20
2018-06-05T05:45:04.988Z,18.30
2018-06-05T05:47:37.545Z,18.30
2018-06-05T05:50:06.516Z,18.60
2018-06-05T05:52:36.486Z,18.60
2018-06-05T05:55:05.128Z,18.60
2018-06-05T05:57:34.364Z,18.80
2018-06-05T06:00:05.335Z,18.80
2018-06-05T06:02:38.327Z,19.20
2018-06-05T06:05:07.908Z,19.30
2018-06-05T06:07:38.581Z,19.20
2018-06-05T06:10:11.660Z,19.40
2018-06-05T06:12:45.286Z,19.50
2018-06-05T06:15:14.164Z,19.50
2018-06-05T06:18:05.468Z,19.50
2018-06-05T06:20:36.692Z,19.70
2018-06-05T06:23:09.238Z,19.80
2018-06-05T06:25:39.236Z,19.80
2018-06-05T06:28:10.459Z,19.90
2018-06-05T06:30:39.325Z,19.90
2018-06-05T06:33:08.061Z,20.00
2018-06-05T06:35:36.174Z,20.20
2018-06-05T06:38:06.096Z,20.40
2018-06-05T06:40:34.554Z,20.60
2018-06-05T06:43:03.618Z,20.70
2018-06-05T06:45:32.062Z,20.90
2018-06-05T06:48:00.197Z,21.00
2018-06-05T06:50:28.707Z,21.20
2018-06-05T06:52:58.821Z,21.30
2018-06-05T06:55:26.999Z,21.40
2018-06-05T06:57:55.938Z,21.50
2018-06-05T07:00:25.751Z,21.60
2018-06-05T07:02:57.890Z,21.60
2018-06-05T07:05:26.023Z,21.60
2018-06-05T07:07:54.176Z,21.50
2018-06-05T07:10:23.673Z,21.50
2018-06-05T07:12:51.811Z,21.50
2018-06-05T07:15:21.868Z,21.60
2018-06-05T07:17:50.247Z,21.60
2018-06-05T07:20:18.433Z,21.70
2018-06-05T07:22:47.361Z,21.70
2018-06-05T07:25:15.600Z,21.80
2018-06-05T07:27:44.113Z,21.80
2018-06-05T07:30:12.255Z,21.90
2018-06-05T07:32:41.402Z,22.00
2018-06-05T07:35:11.677Z,22.20
2018-06-05T07:37:40.110Z,22.10
2018-06-05T07:40:08.215Z,22.20
2018-06-05T07:42:37.971Z,22.10
2018-06-05T07:45:07.606Z,21.90
2018-06-05T07:47:36.603Z,22.00
2018-06-05T07:50:05.711Z,22.10
2018-06-05T07:52:35.422Z,22.20
2018-06-05T07:55:04.676Z,22.20
2018-06-05T07:57:35.346Z,22.40
2018-06-05T08:00:05.748Z,22.50
2018-06-05T08:02:35.622Z,22.50
2018-06-05T08:05:06.833Z,22.70
2018-06-05T08:07:38.444Z,22.90
2018-06-05T08:10:10.960Z,23.10
2018-06-05T08:12:39.510Z,23.10
2018-06-05T08:15:09.088Z,23.20
2018-06-05T08:17:37.312Z,23.30
2018-06-05T08:20:10.052Z,23.50
2018-06-05T08:22:39.607Z,23.60
2018-06-05T08:25:11.892Z,21.10
2018-06-05T08:27:42.607Z,23.60
2018-06-05T08:30:12.576Z,23.60
2018-06-05T08:32:44.096Z,23.60
2018-06-05T08:35:12.872Z,23.70
2018-06-05T08:37:42.441Z,23.90
2018-06-05T08:40:12.709Z,24.00
2018-06-05T08:42:43.773Z,23.90
2018-06-05T08:45:15.663Z,23.90
2018-06-05T08:47:47.773Z,24.00
2018-06-05T08:50:22.002Z,24.10
2018-06-05T08:52:51.075Z,24.00
2018-06-05T08:55:25.213Z,24.20
2018-06-05T08:57:53.542Z,24.20
2018-06-05T09:00:22.348Z,24.40
2018-06-05T09:02:51.865Z,24.50
2018-06-05T09:05:21.471Z,24.50
2018-06-05T09:07:50.555Z,24.50
2018-06-05T09:10:19.454Z,24.70
2018-06-05T09:12:55.226Z,24.80
2018-06-05T09:15:23.789Z,24.70
2018-06-05T09:17:51.923Z,24.70
2018-06-05T09:20:20.239Z,24.60
2018-06-05T09:22:49.130Z,24.50
2018-06-05T09:25:17.803Z,24.50
2018-06-05T09:27:45.948Z,24.50
2018-06-05T09:30:14.083Z,24.50
2018-06-05T09:32:45.335Z,24.40
2018-06-05T09:35:13.475Z,24.40
2018-06-05T09:37:43.256Z,24.70
2018-06-05T09:40:12.109Z,24.60
2018-06-05T09:42:41.675Z,24.80
2018-06-05T09:45:09.788Z,25.00
2018-06-05T09:47:40.743Z,25.10
2018-06-05T09:50:09.698Z,25.30
2018-06-05T09:52:41.949Z,25.40
2018-06-05T09:55:10.711Z,25.60
2018-06-05T09:57:39.258Z,25.70
2018-06-05T10:00:08.206Z,25.80
2018-06-05T10:02:37.204Z,25.80
2018-06-05T10:05:06.349Z,25.80
2018-06-05T10:07:36.168Z,25.80
2018-06-05T10:10:04.295Z,25.90
2018-06-05T10:12:32.669Z,26.10
2018-06-05T10:15:11.104Z,26.20
2018-06-05T10:17:39.329Z,26.30
2018-06-05T10:20:07.507Z,26.30
2018-06-05T10:22:36.837Z,26.40
2018-06-05T10:25:04.964Z,26.60
2018-06-05T10:27:33.553Z,26.70
2018-06-05T10:30:01.727Z,26.80
2018-06-05T10:32:30.096Z,27.00
2018-06-05T10:37:41.161Z,27.00
2018-06-05T10:40:10.825Z,27.10
2018-06-05T10:42:40.882Z,27.10
2018-06-05T10:45:09.243Z,27.20
2018-06-05T10:47:38.277Z,27.30
2018-06-05T10:50:08.939Z,27.40
2018-06-05T10:52:37.060Z,27.40
2018-06-05T10:55:05.437Z,27.50
2018-06-05T10:57:34.504Z,27.60
2018-06-05T11:00:03.534Z,27.60
2018-06-05T11:02:32.985Z,27.60
2018-06-05T11:05:02.047Z,27.50
2018-06-05T11:07:32.254Z,27.30
2018-06-05T11:10:02.158Z,27.20
2018-06-05T11:12:31.086Z,27.20
2018-06-05T11:15:02.808Z,27.20
2018-06-05T11:17:30.913Z,27.20
2018-06-05T11:20:00.756Z,27.50
2018-06-05T11:22:29.835Z,27.50
2018-06-05T11:24:59.062Z,27.50
2018-06-05T11:27:27.330Z,27.50
2018-06-05T11:29:55.479Z,27.60
2018-06-05T11:32:25.568Z,27.80
2018-06-05T11:34:53.686Z,28.00
2018-06-05T11:37:21.875Z,28.10
2018-06-05T11:39:50.835Z,27.90
2018-06-05T11:42:19.746Z,27.60
2018-06-05T11:44:48.822Z,27.30
2018-06-05T11:47:18.001Z,27.20
2018-06-05T11:49:46.782Z,27.30
2018-06-05T11:52:15.693Z,27.30
2018-06-05T11:54:44.573Z,27.30
2018-06-05T11:57:12.949Z,27.50
2018-06-05T11:59:41.762Z,27.60
2018-06-05T12:02:10.932Z,27.50
2018-06-05T12:04:41.533Z,27.50
2018-06-05T12:07:11.793Z,27.50
2018-06-05T12:09:40.845Z,28.00
2018-06-05T12:12:09.677Z,28.00
2018-06-05T12:14:39.524Z,28.10
2018-06-05T12:17:09.576Z,28.10
2018-06-05T12:19:37.699Z,28.30
2018-06-05T12:22:06.712Z,28.50
2018-06-05T12:24:35.540Z,28.60
2018-06-05T12:27:03.754Z,28.90
2018-06-05T12:29:31.907Z,29.10
2018-06-05T12:32:01.835Z,29.70
2018-06-05T12:34:31.096Z,29.80
2018-06-05T12:37:00.550Z,29.70
2018-06-05T12:39:29.462Z,29.80
2018-06-05T12:41:57.632Z,29.70
2018-06-05T12:44:25.755Z,29.80
2018-06-05T12:46:54.874Z,29.80
2018-06-05T12:49:24.491Z,29.90
2018-06-05T12:51:54.221Z,29.80
2018-06-05T12:54:22.335Z,30.00
2018-06-05T12:56:50.596Z,29.80
2018-06-05T12:59:18.853Z,29.70
2018-06-05T13:01:46.960Z,29.90
2018-06-05T13:04:16.586Z,30.40
2018-06-05T13:06:46.376Z,30.60
2018-06-05T13:09:14.514Z,30.60
2018-06-05T13:11:42.644Z,30.90
2018-06-05T13:14:11.533Z,31.30
2018-06-05T13:16:41.436Z,31.40
2018-06-05T13:19:10.377Z,31.40
2018-06-05T13:21:38.479Z,31.30
2018-06-05T13:24:07.264Z,31.30
2018-06-05T13:26:35.499Z,31.40
2018-06-05T13:30:11.838Z,31.50
2018-06-05T13:32:39.940Z,33.20
2018-06-05T13:35:09.131Z,37.00
2018-06-05T13:37:38.043Z,38.90
2018-06-05T13:40:07.482Z,39.90
2018-06-05T13:42:35.741Z,39.80
2018-06-05T13:45:03.883Z,40.50
2018-06-05T13:47:32.817Z,41.40
2018-06-05T13:50:02.685Z,40.50
2018-06-05T13:52:30.883Z,39.30
2018-06-05T13:54:59.771Z,40.90
2018-06-05T13:57:27.958Z,40.90
2018-06-05T13:59:56.329Z,40.90
2018-06-05T14:02:25.479Z,41.00
2018-06-05T14:04:54.394Z,41.50
2018-06-05T14:07:22.874Z,41.50
2018-06-05T14:09:50.987Z,42.50
2018-06-05T14:12:20.688Z,42.80
2018-06-05T14:14:54.958Z,43.30
2018-06-05T14:17:27.381Z,42.70
2018-06-05T14:19:57.419Z,42.70
2018-06-05T14:22:25.596Z,43.50
2018-06-05T14:24:54.089Z,44.10
2018-06-05T14:27:22.237Z,44.50
2018-06-05T14:29:50.441Z,44.60
2018-06-05T14:32:20.117Z,43.70
2018-06-05T14:34:49.169Z,44.00
2018-06-05T14:37:19.302Z,44.10
2018-06-05T14:39:47.675Z,42.80
2018-06-05T14:42:17.028Z,41.30
2018-06-05T14:44:45.295Z,41.80
2018-06-05T14:47:14.701Z,42.80
2018-06-05T14:49:44.118Z,42.90
2018-06-05T14:52:12.966Z,42.30
2018-06-05T14:54:41.597Z,40.70
2018-06-05T15:00:17.407Z,34.40
2018-06-05T15:02:45.533Z,33.00
2018-06-05T15:05:13.708Z,32.30
2018-06-05T15:07:41.893Z,31.70
2018-06-05T15:10:10.274Z,31.00
2018-06-05T15:12:42.702Z,30.70
2018-06-05T15:15:12.628Z,30.10
2018-06-05T15:17:41.756Z,30.10
2018-06-05T15:20:10.690Z,29.90
2018-06-05T15:22:39.685Z,29.70
2018-06-05T15:25:10.272Z,30.00
2018-06-05T15:27:40.482Z,30.60
2018-06-05T15:30:09.823Z,31.40
2018-06-05T15:32:38.805Z,33.30
2018-06-05T15:35:09.593Z,34.20
2018-06-05T15:37:39.233Z,34.40
2018-06-05T15:40:07.402Z,34.10
2018-06-05T15:42:36.385Z,32.90
2018-06-05T15:47:41.427Z,31.60
2018-06-05T15:50:10.407Z,30.70
2018-06-05T15:52:38.608Z,29.80
2018-06-05T15:55:06.748Z,29.50
2018-06-05T15:57:36.650Z,29.50
2018-06-05T16:00:06.193Z,29.60
2018-06-05T16:02:34.349Z,29.80
2018-06-05T16:05:02.762Z,30.00
2018-06-05T16:07:32.916Z,30.10
2018-06-05T16:10:03.117Z,30.40
2018-06-05T16:12:31.994Z,30.10
2018-06-05T16:15:02.821Z,30.10
2018-06-05T16:17:39.758Z,30.10
2018-06-05T16:20:07.872Z,30.60
2018-06-05T16:22:35.983Z,31.10
2018-06-05T16:25:06.037Z,30.90
2018-06-05T16:27:34.243Z,30.60
2018-06-05T16:30:02.624Z,30.70
2018-06-05T16:32:31.530Z,32.90
2018-06-05T16:35:01.203Z,34.10
2018-06-05T16:37:29.400Z,34.00
2018-06-05T16:42:40.625Z,32.70
2018-06-05T16:45:10.368Z,31.70
2018-06-05T16:47:47.252Z,31.60
2018-06-05T16:50:15.784Z,30.70
2018-06-05T16:52:45.045Z,30.00
2018-06-05T16:55:15.234Z,29.90
2018-06-05T16:57:43.489Z,29.70
2018-06-05T17:00:13.134Z,29.60
2018-06-05T17:02:41.276Z,29.60
2018-06-05T17:05:10.282Z,29.50
2018-06-05T17:07:38.432Z,29.50
2018-06-05T17:10:07.337Z,29.60
2018-06-05T17:12:35.499Z,29.60
2018-06-05T17:15:04.388Z,29.50
2018-06-05T17:17:34.425Z,29.40
2018-06-05T17:20:03.302Z,29.40
2018-06-05T17:22:32.204Z,29.40
2018-06-05T17:25:01.073Z,29.30
2018-06-05T17:27:31.641Z,29.20
2018-06-05T17:30:00.508Z,29.20
2018-06-05T17:32:31.241Z,29.10
2018-06-05T17:35:00.131Z,29.00
2018-06-05T17:37:30.147Z,28.80
2018-06-05T17:39:58.249Z,28.80
2018-06-05T17:42:26.386Z,28.70
2018-06-05T17:44:55.517Z,28.00
2018-06-05T17:47:26.267Z,28.00
2018-06-05T17:49:54.366Z,27.90
2018-06-05T17:52:22.508Z,27.80
2018-06-05T17:54:51.566Z,27.70
2018-06-05T17:57:22.231Z,27.60
2018-06-05T17:59:50.425Z,27.60
2018-06-05T18:02:19.866Z,27.40
2018-06-05T18:04:47.960Z,27.30
2018-06-05T18:07:16.225Z,27.20
2018-06-05T18:09:45.154Z,27.10
2018-06-05T18:12:13.282Z,27.10
2018-06-05T18:14:43.486Z,26.90
2018-06-05T18:17:11.666Z,26.90
2018-06-05T18:19:41.910Z,26.80
2018-06-05T18:22:10.807Z,26.70
2018-06-05T18:24:39.790Z,26.70
2018-06-05T18:27:12.844Z,26.50
2018-06-05T18:29:41.944Z,26.50
2018-06-05T18:32:12.460Z,26.40
2018-06-05T18:34:40.873Z,26.30
2018-06-05T18:37:10.043Z,26.20
2018-06-05T18:39:39.021Z,26.10
2018-06-05T18:42:07.195Z,26.00
2018-06-05T18:44:38.516Z,25.90
2018-06-05T18:47:08.405Z,25.80
2018-06-05T18:49:42.107Z,25.70
2018-06-05T18:52:12.033Z,25.70
2018-06-05T18:54:41.677Z,25.50
2018-06-05T18:57:10.772Z,25.50
2018-06-05T18:59:39.133Z,25.40
2018-06-05T19:02:07.364Z,25.30
2018-06-05T19:04:35.522Z,25.10
2018-06-05T19:07:03.629Z,25.10
2018-06-05T19:09:32.702Z,24.70
2018-06-05T19:12:00.844Z,24.70
2018-06-05T19:14:29.044Z,24.30
2018-06-05T19:16:57.163Z,23.80
2018-06-05T19:19:25.307Z,23.30
2018-06-05T19:21:55.147Z,22.70
2018-06-05T19:24:23.321Z,22.40
2018-06-05T19:26:52.290Z,22.30
2018-06-05T19:29:20.438Z,22.20
2018-06-05T19:31:48.535Z,22.10
2018-06-05T19:34:34.053Z,22.00
2018-06-05T19:37:02.200Z,22.00
2018-06-05T19:39:31.077Z,21.80
2018-06-05T19:42:00.015Z,21.70
2018-06-05T19:44:28.122Z,21.70
2018-06-05T19:46:58.099Z,21.60
2018-06-05T19:49:26.484Z,21.50
2018-06-05T19:51:54.681Z,21.50
2018-06-05T19:54:31.974Z,21.30
2018-06-05T19:57:02.393Z,21.10
2018-06-05T19:59:30.741Z,21.10
2018-06-05T20:01:58.942Z,21.00
2018-06-05T20:04:27.177Z,20.80
2018-06-05T20:06:56.252Z,20.80
2018-06-05T20:09:25.253Z,20.70
2018-06-05T20:11:53.677Z,20.70
2018-06-05T20:14:21.798Z,20.60
2018-06-05T20:16:50.798Z,20.40
2018-06-05T20:19:19.740Z,20.30
2018-06-05T20:21:47.874Z,20.30
2018-06-05T20:24:16.761Z,20.20
2018-06-05T20:26:45.728Z,20.10
2018-06-05T20:29:13.861Z,20.00
2018-06-05T20:31:42.002Z,20.00
2018-06-05T20:34:10.925Z,19.90
2018-06-05T20:36:42.012Z,19.90
2018-06-05T20:39:10.205Z,19.90
2018-06-05T20:41:38.338Z,19.80
2018-06-05T20:44:06.478Z,19.70
2018-06-05T20:46:34.617Z,19.70
2018-06-05T20:49:03.899Z,19.60
2018-06-05T20:51:32.017Z,19.50
2018-06-05T20:54:00.155Z,19.50
2018-06-05T20:56:28.373Z,19.40
2018-06-05T20:58:56.520Z,19.40
2018-06-05T21:01:25.770Z,19.10
2018-06-05T21:03:53.894Z,19.00
2018-06-05T21:06:22.063Z,18.90
2018-06-05T21:08:50.949Z,18.80
2018-06-05T21:11:19.930Z,18.70
2018-06-05T21:13:48.070Z,18.70
2018-06-05T21:16:17.194Z,18.60
2018-06-05T21:18:46.298Z,18.60
2018-06-05T21:21:14.448Z,18.60
2018-06-05T21:23:42.570Z,18.70
2018-06-05T21:26:11.756Z,18.80
2018-06-05T21:28:40.659Z,18.70
2018-06-05T21:31:08.815Z,18.70
2018-06-05T21:33:37.729Z,18.60
2018-06-05T21:36:05.868Z,18.50
2018-06-05T21:38:34.958Z,18.50
2018-06-05T21:41:03.118Z,18.40
2018-06-05T21:43:31.239Z,18.30
2018-06-05T21:45:59.382Z,18.30
2018-06-05T21:48:27.497Z,18.30
2018-06-05T21:50:55.623Z,18.30
2018-06-05T21:53:23.775Z,18.20
2018-06-05T21:55:52.903Z,18.10
2018-06-05T21:58:21.471Z,18.10
2018-06-05T22:00:49.589Z,18.10
2018-06-05T22:03:17.801Z,18.10
2018-06-05T22:05:46.028Z,18.00
2018-06-05T22:08:14.909Z,18.20
2018-06-05T22:10:43.053Z,18.10
2018-06-05T22:13:11.186Z,18.10
2018-06-05T22:15:39.316Z,18.10
2018-06-05T22:18:07.431Z,18.00
2018-06-05T22:20:35.557Z,18.00
2018-06-05T22:23:03.691Z,17.90
2018-06-05T22:25:32.105Z,17.80
2018-06-05T22:28:00.202Z,17.70
2018-06-05T22:30:29.099Z,17.60
2018-06-05T22:32:58.134Z,17.60
2018-06-05T22:35:26.291Z,17.60
2018-06-05T22:37:54.420Z,17.60
2018-06-05T22:40:22.561Z,17.50
2018-06-05T22:42:50.689Z,17.40
2018-06-05T22:45:19.576Z,17.30
2018-06-05T22:47:48.467Z,17.20
2018-06-05T22:50:17.360Z,17.20
2018-06-05T22:52:46.248Z,17.10
2018-06-05T22:55:15.137Z,17.10
2018-06-05T22:57:44.122Z,17.10
2018-06-05T23:00:12.254Z,17.10
2018-06-05T23:02:40.849Z,17.10
2018-06-05T23:05:10.418Z,17.10
2018-06-05T23:07:39.293Z,17.10
2018-06-05T23:10:07.421Z,17.10
2018-06-05T23:12:35.561Z,17.10
2018-06-05T23:15:03.673Z,17.00
2018-06-05T23:17:31.805Z,17.00
2018-06-05T23:19:59.942Z,17.00
2018-06-05T23:22:29.090Z,16.90
2018-06-05T23:24:57.639Z,16.90
2018-06-05T23:27:26.539Z,17.00
2018-06-05T23:29:54.640Z,17.00
2018-06-05T23:32:22.770Z,17.00
2018-06-05T23:34:51.666Z,17.10
2018-06-05T23:37:20.661Z,17.10
2018-06-05T23:39:49.548Z,17.20
2018-06-05T23:42:19.242Z,17.10
2018-06-05T23:44:47.358Z,17.10
2018-06-05T23:47:16.310Z,17.10
2018-06-05T23:49:45.189Z,16.80
2018-06-05T23:52:13.371Z,16.80
2018-06-05T23:54:41.729Z,16.70
2018-06-05T23:57:10.939Z,16.60
2018-06-05T23:59:40.132Z,16.50
